createdAt,value
2023-03-08T00:00:43.074Z,25.47
2023-03-08T00:03:32.152Z,28.93
2023-03-08T00:06:21.175Z,29.43
2023-03-08T00:09:12.341Z,26.93
2023-03-08T00:12:01.403Z,24.43
2023-03-08T00:14:50.362Z,24.73
2023-03-08T00:17:40.353Z,22.50
2023-03-08T00:20:29.775Z,24.80
2023-03-08T00:23:18.966Z,23.73
2023-03-08T00:26:09.585Z,26.93
2023-03-08T00:28:58.779Z,22.90
2023-03-08T00:31:50.287Z,24.10
2023-03-08T00:34:46.409Z,23.53
2023-03-08T00:37:35.470Z,23.13
2023-03-08T00:40:24.433Z,25.60
2023-03-08T00:43:15.003Z,25.03
2023-03-08T00:46:04.211Z,29.03
2023-03-08T00:48:53.158Z,23.03
2023-03-08T00:51:41.936Z,23.53
2023-03-08T00:54:32.091Z,23.37
2023-03-08T00:57:20.954Z,24.90
2023-03-08T01:00:13.706Z,22.63
2023-03-08T01:03:02.671Z,21.77
2023-03-08T01:05:52.789Z,25.60
2023-03-08T01:08:42.307Z,26.53
2023-03-08T01:11:31.431Z,24.90
2023-03-08T01:14:20.236Z,24.53
2023-03-08T01:17:36.102Z,25.80
2023-03-08T01:20:28.541Z,23.97
2023-03-08T01:23:17.891Z,26.43
2023-03-08T01:26:08.529Z,25.60
2023-03-08T01:28:58.260Z,22.83
2023-03-08T01:31:47.553Z,24.87
2023-03-08T01:34:38.464Z,24.33
2023-03-08T01:37:27.608Z,23.53
2023-03-08T01:40:17.307Z,23.50
2023-03-08T01:43:18.564Z,24.33
2023-03-08T01:46:25.026Z,25.63
2023-03-08T01:49:28.838Z,25.17
2023-03-08T01:52:24.040Z,23.13
2023-03-08T01:55:37.785Z,28.63
2023-03-08T01:58:27.308Z,25.30
2023-03-08T02:01:17.325Z,25.80
2023-03-08T02:04:07.238Z,25.93
2023-03-08T02:06:56.720Z,30.33
2023-03-08T02:09:52.593Z,25.10
2023-03-08T02:12:42.781Z,25.10
2023-03-08T02:15:32.958Z,24.73
2023-03-08T02:18:22.251Z,23.83
2023-03-08T02:21:11.464Z,26.90
2023-03-08T02:24:07.611Z,25.97
2023-03-08T02:27:00.953Z,27.63
2023-03-08T02:29:50.228Z,26.70
2023-03-08T02:32:39.407Z,28.63
2023-03-08T02:35:30.669Z,26.90
2023-03-08T02:38:21.865Z,27.00
2023-03-08T02:41:12.466Z,24.10
2023-03-08T02:44:01.802Z,24.50
2023-03-08T02:46:52.404Z,24.17
2023-03-08T02:49:41.465Z,27.43
2023-03-08T02:52:31.864Z,25.57
2023-03-08T02:55:20.930Z,25.57
2023-03-08T02:58:12.327Z,26.13
2023-03-08T03:01:01.681Z,27.47
2023-03-08T03:03:50.686Z,25.43
2023-03-08T03:06:40.362Z,24.50
2023-03-08T03:09:37.207Z,27.10
2023-03-08T03:12:26.985Z,25.00
2023-03-08T03:15:17.695Z,26.60
2023-03-08T03:18:10.122Z,25.53
2023-03-08T03:21:04.555Z,28.60
2023-03-08T03:23:55.852Z,26.83
2023-03-08T03:26:52.469Z,36.17
2023-03-08T03:29:43.241Z,26.30
2023-03-08T03:32:40.371Z,27.10
2023-03-08T03:35:30.346Z,30.93
2023-03-08T03:38:20.001Z,27.87
2023-03-08T03:41:11.089Z,25.70
2023-03-08T03:44:00.571Z,27.40
2023-03-08T03:46:49.778Z,29.53
2023-03-08T03:49:45.787Z,31.50
2023-03-08T03:52:36.687Z,26.40
2023-03-08T03:55:27.446Z,26.57
2023-03-08T03:58:17.287Z,27.07
2023-03-08T04:01:08.822Z,36.20
2023-03-08T04:03:58.289Z,26.27
2023-03-08T04:06:49.898Z,27.70
2023-03-08T04:09:42.978Z,27.77
2023-03-08T04:12:36.483Z,26.93
2023-03-08T04:15:26.628Z,26.53
2023-03-08T04:18:16.005Z,29.73
2023-03-08T04:21:08.096Z,27.77
2023-03-08T04:24:00.707Z,28.80
2023-03-08T04:26:50.711Z,27.83
2023-03-08T04:29:42.509Z,29.10
2023-03-08T04:32:33.081Z,27.80
2023-03-08T04:35:23.000Z,28.47
2023-03-08T04:38:15.224Z,27.30
2023-03-08T04:41:11.972Z,30.77
2023-03-08T04:44:09.615Z,33.00
2023-03-08T04:47:03.908Z,27.83
2023-03-08T04:49:59.714Z,27.77
2023-03-08T04:52:49.323Z,27.60
2023-03-08T04:55:38.776Z,27.47
2023-03-08T04:58:30.709Z,27.87
2023-03-08T05:01:22.382Z,27.43
2023-03-08T05:04:12.859Z,28.90
2023-03-08T05:07:03.502Z,27.10
2023-03-08T05:09:56.206Z,27.93
2023-03-08T05:12:47.014Z,29.40
2023-03-08T05:15:38.227Z,26.40
2023-03-08T05:18:27.515Z,29.60
2023-03-08T05:21:18.574Z,28.37
2023-03-08T05:24:11.414Z,31.10
2023-03-08T05:27:01.540Z,28.77
2023-03-08T05:29:52.996Z,25.53
2023-03-08T05:32:43.770Z,25.93
2023-03-08T05:35:33.164Z,27.03
2023-03-08T05:38:22.870Z,29.00
2023-03-08T05:41:14.611Z,26.50
2023-03-08T05:44:05.393Z,29.53
2023-03-08T05:46:56.577Z,25.93
2023-03-08T05:49:47.278Z,25.73
2023-03-08T05:52:37.163Z,29.80
2023-03-08T05:55:26.531Z,28.50
2023-03-08T05:58:17.809Z,26.30
2023-03-08T06:01:12.551Z,29.33
2023-03-08T06:04:01.919Z,27.70
2023-03-08T06:06:57.435Z,28.90
2023-03-08T06:09:52.331Z,26.30
2023-03-08T06:12:41.669Z,27.40
2023-03-08T06:15:34.454Z,27.73
2023-03-08T06:18:24.082Z,25.77
2023-03-08T06:21:15.351Z,26.73
2023-03-08T06:24:08.152Z,29.13
2023-03-08T06:26:57.413Z,27.23
2023-03-08T06:29:46.642Z,26.90
2023-03-08T06:32:37.842Z,26.93
2023-03-08T06:35:28.655Z,27.50
2023-03-08T06:38:22.237Z,25.37
2023-03-08T06:41:13.763Z,27.53
2023-03-08T06:44:03.342Z,29.03
2023-03-08T06:46:52.585Z,31.17
2023-03-08T06:49:42.824Z,28.40
2023-03-08T06:52:37.853Z,28.03
2023-03-08T06:55:29.329Z,30.03
2023-03-08T06:58:21.655Z,27.93
2023-03-08T07:01:10.730Z,26.57
2023-03-08T07:04:00.153Z,26.60
2023-03-08T07:06:49.221Z,25.30
2023-03-08T07:09:38.385Z,26.43
2023-03-08T07:12:28.014Z,28.13
2023-03-08T07:15:20.046Z,29.70
2023-03-08T07:18:09.061Z,26.23
2023-03-08T07:20:58.539Z,26.60
2023-03-08T07:23:47.816Z,27.03
2023-03-08T07:26:36.818Z,27.40
2023-03-08T07:29:26.397Z,32.67
2023-03-08T07:32:19.634Z,27.17
2023-03-08T07:35:11.691Z,28.50
2023-03-08T07:38:00.978Z,28.43
2023-03-08T07:40:55.759Z,27.53
2023-03-08T07:43:45.034Z,30.23
2023-03-08T07:46:40.910Z,28.17
2023-03-08T07:49:31.868Z,26.40
2023-03-08T07:52:21.294Z,27.63
2023-03-08T07:55:11.592Z,28.60
2023-03-08T07:58:01.817Z,25.73
2023-03-08T08:00:51.145Z,26.93
2023-03-08T08:03:41.058Z,25.53
2023-03-08T08:06:32.309Z,27.00
2023-03-08T08:09:21.743Z,24.50
2023-03-08T08:12:11.561Z,26.33
2023-03-08T08:15:00.926Z,27.40
2023-03-08T08:17:50.119Z,25.80
2023-03-08T08:20:42.335Z,24.07
2023-03-08T08:23:33.174Z,25.00
2023-03-08T08:26:23.178Z,24.20
2023-03-08T08:29:13.558Z,26.30
2023-03-08T08:32:04.401Z,23.40
2023-03-08T08:34:53.413Z,25.30
2023-03-08T08:37:42.214Z,24.63
2023-03-08T08:40:32.751Z,23.63
2023-03-08T08:43:21.892Z,28.73
2023-03-08T08:46:11.230Z,22.13
2023-03-08T08:48:59.900Z,21.40
2023-03-08T08:51:48.600Z,19.70
2023-03-08T08:54:39.958Z,25.90
2023-03-08T08:57:30.496Z,21.70
2023-03-08T09:00:20.009Z,22.80
2023-03-08T09:03:09.364Z,18.70
2023-03-08T09:05:59.657Z,22.00
2023-03-08T09:08:50.774Z,21.20
2023-03-08T09:11:53.360Z,20.20
2023-03-08T09:14:44.721Z,18.70
2023-03-08T09:17:34.311Z,22.27
2023-03-08T09:20:23.748Z,17.27
2023-03-08T09:23:13.055Z,18.90
2023-03-08T09:26:02.562Z,18.20
2023-03-08T09:28:51.431Z,19.83
2023-03-08T09:31:42.722Z,19.80
2023-03-08T09:34:32.124Z,18.63
2023-03-08T09:37:21.251Z,17.50
2023-03-08T09:40:19.162Z,18.17
2023-03-08T09:43:08.532Z,17.87
2023-03-08T09:45:58.089Z,17.50
2023-03-08T09:48:51.163Z,19.07
2023-03-08T09:51:43.692Z,18.93
2023-03-08T09:54:34.556Z,17.40
2023-03-08T09:57:25.735Z,19.50
2023-03-08T10:00:21.707Z,17.70
2023-03-08T10:03:25.266Z,16.60
2023-03-08T10:06:19.604Z,18.27
2023-03-08T10:09:16.691Z,19.30
2023-03-08T10:12:18.060Z,18.20
2023-03-08T10:15:11.300Z,19.77
2023-03-08T10:18:02.532Z,17.43
2023-03-08T10:20:51.332Z,16.30
2023-03-08T10:23:42.585Z,18.00
2023-03-08T10:26:31.571Z,16.40
2023-03-08T10:29:20.081Z,17.97
2023-03-08T10:32:14.086Z,17.03
2023-03-08T10:35:03.296Z,18.80
2023-03-08T10:37:52.800Z,18.57
2023-03-08T10:40:42.986Z,22.83
2023-03-08T10:43:33.492Z,20.87
2023-03-08T10:46:24.303Z,19.73
2023-03-08T10:49:17.880Z,19.77
2023-03-08T10:52:06.870Z,19.70
2023-03-08T10:55:03.929Z,18.70
2023-03-08T10:57:58.339Z,21.53
2023-03-08T11:00:56.408Z,20.47
2023-03-08T11:03:45.263Z,16.30
2023-03-08T11:06:36.223Z,24.23
2023-03-08T11:09:27.997Z,24.00
2023-03-08T11:12:25.046Z,16.70
2023-03-08T11:15:17.578Z,19.93
2023-03-08T11:18:15.723Z,22.40
2023-03-08T11:21:08.268Z,18.30
2023-03-08T11:24:05.246Z,19.63
2023-03-08T11:27:03.823Z,20.83
2023-03-08T11:30:03.789Z,18.23
2023-03-08T11:33:18.315Z,17.93
2023-03-08T11:36:10.501Z,22.33
2023-03-08T11:39:06.197Z,19.00
2023-03-08T11:42:01.133Z,19.63
2023-03-08T11:44:57.632Z,17.20
2023-03-08T11:48:13.701Z,17.53
2023-03-08T11:51:07.623Z,19.13
2023-03-08T11:54:04.985Z,17.87
2023-03-08T11:56:56.523Z,19.67
2023-03-08T11:59:48.945Z,20.07
2023-03-08T12:02:40.264Z,16.40
2023-03-08T12:05:31.524Z,18.43
2023-03-08T12:08:24.202Z,22.03
2023-03-08T12:11:18.603Z,17.40
2023-03-08T12:14:14.500Z,16.87
2023-03-08T12:17:09.060Z,20.07
2023-03-08T12:19:57.784Z,17.43
2023-03-08T12:22:49.296Z,19.23
2023-03-08T12:25:40.687Z,16.47
2023-03-08T12:28:32.114Z,17.47
2023-03-08T12:31:28.610Z,20.07
2023-03-08T12:34:28.138Z,17.50
2023-03-08T12:37:24.450Z,16.67
2023-03-08T12:43:11.285Z,17.97
2023-03-08T12:46:08.233Z,18.20
2023-03-08T12:48:58.178Z,18.27
2023-03-08T12:51:57.772Z,17.77
2023-03-08T12:54:57.550Z,22.60
2023-03-08T12:57:49.330Z,17.50
2023-03-08T13:00:39.716Z,17.80
2023-03-08T13:03:31.399Z,17.77
2023-03-08T13:06:51.186Z,19.20
2023-03-08T13:09:47.041Z,16.67
2023-03-08T13:12:43.448Z,17.57
2023-03-08T13:15:31.931Z,19.10
2023-03-08T13:18:21.637Z,18.47
2023-03-08T13:21:21.559Z,18.37
2023-03-08T13:24:15.871Z,19.20
2023-03-08T13:27:17.801Z,20.77
2023-03-08T13:30:20.280Z,21.60
2023-03-08T13:33:10.626Z,18.77
2023-03-08T13:36:02.393Z,18.80
2023-03-08T13:38:59.870Z,18.73
2023-03-08T13:41:49.580Z,20.83
2023-03-08T13:44:38.237Z,18.00
2023-03-08T13:47:34.842Z,18.63
2023-03-08T13:50:28.046Z,19.60
2023-03-08T13:53:20.694Z,19.87
2023-03-08T13:56:09.445Z,19.10
2023-03-08T13:58:59.015Z,19.50
2023-03-08T14:01:51.992Z,19.53
2023-03-08T14:04:44.023Z,19.67
2023-03-08T14:07:33.115Z,20.57
2023-03-08T14:10:27.398Z,19.20
2023-03-08T14:13:18.324Z,22.23
2023-03-08T14:16:08.467Z,22.47
2023-03-08T14:18:57.109Z,19.20
2023-03-08T14:21:49.766Z,18.93
2023-03-08T14:24:38.666Z,19.73
2023-03-08T14:27:38.319Z,17.63
2023-03-08T14:30:28.189Z,19.30
2023-03-08T14:33:28.291Z,19.40
2023-03-08T14:36:19.118Z,19.80
2023-03-08T14:39:07.650Z,18.03
2023-03-08T14:41:56.646Z,18.53
2023-03-08T14:44:51.451Z,24.70
2023-03-08T14:47:39.829Z,17.80
2023-03-08T14:50:30.666Z,18.00
2023-03-08T14:53:25.939Z,21.43
2023-03-08T14:56:15.972Z,20.00
2023-03-08T14:59:05.943Z,17.67
2023-03-08T15:01:56.037Z,19.43
2023-03-08T15:04:45.374Z,21.60
2023-03-08T15:07:35.734Z,27.13
2023-03-08T15:10:29.219Z,18.40
2023-03-08T15:13:22.287Z,19.67
2023-03-08T15:16:13.897Z,17.67
2023-03-08T15:19:04.281Z,18.17
2023-03-08T15:21:52.959Z,17.40
2023-03-08T15:24:41.422Z,19.70
2023-03-08T15:27:30.780Z,22.07
2023-03-08T15:30:21.622Z,20.30
2023-03-08T15:33:10.709Z,19.20
2023-03-08T15:36:00.653Z,16.83
2023-03-08T15:38:49.552Z,20.47
2023-03-08T15:41:38.140Z,17.20
2023-03-08T15:44:26.496Z,19.00
2023-03-08T15:47:14.871Z,17.40
2023-03-08T15:50:28.454Z,18.10
2023-03-08T15:53:29.586Z,17.50
2023-03-08T15:56:25.635Z,17.23
2023-03-08T15:59:14.014Z,20.57
2023-03-08T16:02:02.796Z,18.73
2023-03-08T16:04:55.743Z,17.30
2023-03-08T16:07:44.329Z,21.00
2023-03-08T16:10:41.852Z,19.70
2023-03-08T16:13:30.422Z,24.83
2023-03-08T16:16:19.438Z,16.53
2023-03-08T16:19:07.815Z,16.80
2023-03-08T16:21:56.196Z,19.63
2023-03-08T16:24:44.796Z,17.97
2023-03-08T16:27:36.629Z,18.60
2023-03-08T16:30:26.699Z,19.20
2023-03-08T16:33:17.285Z,18.50
2023-03-08T16:36:06.956Z,19.27
2023-03-08T16:38:56.651Z,19.00
2023-03-08T16:41:45.200Z,19.07
2023-03-08T16:44:34.996Z,17.30
2023-03-08T16:47:24.680Z,18.20
2023-03-08T16:50:13.764Z,19.50
2023-03-08T16:53:02.198Z,17.67
2023-03-08T16:55:52.557Z,17.87
2023-03-08T16:58:40.997Z,17.50
2023-03-08T17:01:31.681Z,16.67
2023-03-08T17:04:20.357Z,18.17
2023-03-08T17:07:09.068Z,17.47
2023-03-08T17:09:58.332Z,17.30
2023-03-08T17:12:46.696Z,17.30
2023-03-08T17:15:40.489Z,17.10
2023-03-08T17:18:30.229Z,18.63
2023-03-08T17:21:19.732Z,17.60
2023-03-08T17:24:09.689Z,18.63
2023-03-08T17:26:58.118Z,18.43
2023-03-08T17:29:46.528Z,17.67
2023-03-08T17:32:34.980Z,19.90
2023-03-08T17:35:25.048Z,18.87
2023-03-08T17:38:13.523Z,17.80
2023-03-08T17:41:05.220Z,17.53
2023-03-08T17:43:54.054Z,18.17
2023-03-08T17:46:42.601Z,17.70
2023-03-08T17:49:31.085Z,17.97
2023-03-08T17:52:20.827Z,18.70
2023-03-08T17:55:10.205Z,18.70
2023-03-08T17:57:58.602Z,21.03
2023-03-08T18:00:47.031Z,19.93
2023-03-08T18:03:36.075Z,18.13
2023-03-08T18:06:29.655Z,17.50
2023-03-08T18:09:19.544Z,17.33
2023-03-08T18:12:09.113Z,19.13
2023-03-08T18:14:57.613Z,18.73
2023-03-08T18:17:46.409Z,18.40
2023-03-08T18:20:35.238Z,18.00
2023-03-08T18:23:24.709Z,20.00
2023-03-08T18:26:16.159Z,16.97
2023-03-08T18:29:04.561Z,19.50
2023-03-08T18:31:53.412Z,17.37
2023-03-08T18:34:41.877Z,17.40
2023-03-08T18:37:31.304Z,16.93
2023-03-08T18:40:19.853Z,16.60
2023-03-08T18:43:09.592Z,18.10
2023-03-08T18:45:57.929Z,16.30
2023-03-08T18:48:50.831Z,16.00
2023-03-08T18:51:41.552Z,18.40
2023-03-08T18:54:30.018Z,18.80
2023-03-08T18:57:18.454Z,17.20
2023-03-08T19:00:11.924Z,17.80
2023-03-08T19:03:00.601Z,17.83
2023-03-08T19:05:49.099Z,18.50
2023-03-08T19:08:37.837Z,18.20
2023-03-08T19:11:27.843Z,16.73
2023-03-08T19:14:17.039Z,17.43
2023-03-08T19:17:06.748Z,17.43
2023-03-08T19:19:55.153Z,16.67
2023-03-08T19:22:43.522Z,18.70
2023-03-08T19:25:33.028Z,18.33
2023-03-08T19:28:21.468Z,16.90
2023-03-08T19:31:17.254Z,18.67
2023-03-08T19:34:07.837Z,19.53
2023-03-08T19:36:56.828Z,18.57
2023-03-08T19:39:47.564Z,18.10
2023-03-08T19:42:36.013Z,20.13
2023-03-08T19:45:25.412Z,18.77
2023-03-08T19:48:14.550Z,19.50
2023-03-08T19:51:04.909Z,17.97
2023-03-08T19:53:53.394Z,18.20
2023-03-08T19:56:41.887Z,17.93
2023-03-08T19:59:31.003Z,17.50
2023-03-08T20:02:19.417Z,17.50
2023-03-08T20:05:08.273Z,17.53
2023-03-08T20:07:59.033Z,18.13
2023-03-08T20:10:49.316Z,20.03
2023-03-08T20:13:37.684Z,20.23
2023-03-08T20:16:26.776Z,19.20
2023-03-08T20:19:15.370Z,18.80
2023-03-08T20:22:05.167Z,18.30
2023-03-08T20:24:54.903Z,17.10
2023-03-08T20:27:43.838Z,17.70
2023-03-08T20:30:32.276Z,23.20
2023-03-08T20:33:20.828Z,19.43
2023-03-08T20:36:09.722Z,23.87
2023-03-08T20:38:58.731Z,18.13
2023-03-08T20:41:48.452Z,18.47
2023-03-08T20:44:36.858Z,18.20
2023-03-08T20:47:25.294Z,18.20
2023-03-08T20:50:13.735Z,17.80
2023-03-08T20:53:02.175Z,18.40
2023-03-08T20:55:50.644Z,18.53
2023-03-08T20:58:40.894Z,19.20
2023-03-08T21:01:31.070Z,17.97
2023-03-08T21:04:19.528Z,18.20
2023-03-08T21:07:08.216Z,19.00
2023-03-08T21:09:56.832Z,18.10
2023-03-08T21:12:45.220Z,18.13
2023-03-08T21:15:35.239Z,18.73
2023-03-08T21:18:23.707Z,17.90
2023-03-08T21:21:18.573Z,18.50
2023-03-08T21:24:08.645Z,19.07
2023-03-08T21:26:57.083Z,19.43
2023-03-08T21:29:45.901Z,18.50
2023-03-08T21:32:35.623Z,18.60
2023-03-08T21:35:24.124Z,17.97
2023-03-08T21:38:12.454Z,18.23
2023-03-08T21:41:00.826Z,22.10
2023-03-08T21:43:49.546Z,19.63
2023-03-08T21:46:38.836Z,18.43
2023-03-08T21:49:29.903Z,17.83
2023-03-08T21:52:18.340Z,23.43
2023-03-08T21:55:07.623Z,20.00
2023-03-08T21:57:56.025Z,17.87
2023-03-08T22:00:44.605Z,19.93
2023-03-08T22:03:33.510Z,18.37
2023-03-08T22:06:23.692Z,18.77
2023-03-08T22:09:12.182Z,18.57
2023-03-08T22:12:00.560Z,17.77
2023-03-08T22:14:48.908Z,18.73
2023-03-08T22:17:37.327Z,18.93
2023-03-08T22:20:27.405Z,18.00
2023-03-08T22:23:17.237Z,17.60
2023-03-08T22:26:08.072Z,19.10
2023-03-08T22:28:56.933Z,17.90
2023-03-08T22:31:45.359Z,18.57
2023-03-08T22:34:34.056Z,18.43
2023-03-08T22:37:22.483Z,18.70
2023-03-08T22:40:14.074Z,19.10
2023-03-08T22:43:02.529Z,18.07
2023-03-08T22:45:50.949Z,18.57
2023-03-08T22:48:39.418Z,18.37
2023-03-08T22:51:28.716Z,18.50
2023-03-08T22:54:18.619Z,18.60
2023-03-08T22:57:08.633Z,18.80
2023-03-08T22:59:57.414Z,18.70
2023-03-08T23:02:46.865Z,18.20
2023-03-08T23:05:35.248Z,18.80
2023-03-08T23:08:24.413Z,18.90
2023-03-08T23:11:13.128Z,17.90
2023-03-08T23:14:03.127Z,18.77
2023-03-08T23:16:51.519Z,18.70
2023-03-08T23:19:44.987Z,18.80
2023-03-08T23:22:33.526Z,18.50
2023-03-08T23:25:21.954Z,17.80
2023-03-08T23:28:10.295Z,18.17
2023-03-08T23:31:00.285Z,18.87
2023-03-08T23:33:49.070Z,18.47
2023-03-08T23:36:37.477Z,18.57
2023-03-08T23:39:25.992Z,18.77
2023-03-08T23:42:14.363Z,18.23
2023-03-08T23:45:02.819Z,18.40
2023-03-08T23:47:52.620Z,18.13
2023-03-08T23:50:41.185Z,18.97
2023-03-08T23:53:29.578Z,18.20
2023-03-08T23:56:20.772Z,18.53
2023-03-08T23:59:11.624Z,18.57
